Terminal Aerodrome Forecast
Issued by NWS

Home | Current Version | Previous Version | Graphics & Text | Print | Product List | Glossary Off
Versions: 1 2 3 4 5 6 7 8 9 10 11 12 13 14 15 16 17 18 19 20 21 22 23

000
FTUS42 KMHX 252300
TAFOAJ
TAF
KOAJ 252332Z 2600/2624 15005KT P6SM SCT035 BKN050
     FM260600 00000KT 2SM BR SCT007
     FM261300 23005KT P6SM SCT030
      AMD LTD TO CLD VIS AND WIND=

USA.gov is the U.S. government's official web portal to all federal, state and local government web resources and services.